sensor_id;sensor_type;location;lat;lon;timestamp;temperature;humidity
64012;DHT22;50211;52.768;12.124;2023-05-18T00:01:07;6.70;99.90
64012;DHT22;50211;52.768;12.124;2023-05-18T00:03:32;6.70;99.90
64012;DHT22;50211;52.768;12.124;2023-05-18T00:05:58;6.70;99.90
64012;DHT22;50211;52.768;12.124;2023-05-18T00:08:28;6.70;99.90
64012;DHT22;50211;52.768;12.124;2023-05-18T00:10:54;6.80;99.90
64012;DHT22;50211;52.768;12.124;2023-05-18T00:13:19;6.80;99.90
64012;DHT22;50211;52.768;12.124;2023-05-18T00:15:45;6.80;99.90
64012;DHT22;50211;52.768;12.124;2023-05-18T00:18:11;6.70;99.90
64012;DHT22;50211;52.768;12.124;2023-05-18T00:20:36;6.70;99.90
64012;DHT22;50211;52.768;12.124;2023-05-18T00:23:02;6.70;99.90
64012;DHT22;50211;52.768;12.124;2023-05-18T00:25:27;6.60;99.90
64012;DHT22;50211;52.768;12.124;2023-05-18T00:27:53;6.40;99.90
64012;DHT22;50211;52.768;12.124;2023-05-18T00:30:18;6.30;99.90
64012;DHT22;50211;52.768;12.124;2023-05-18T00:32:44;6.20;99.90
64012;DHT22;50211;52.768;12.124;2023-05-18T00:35:10;6.10;99.90
64012;DHT22;50211;52.768;12.124;2023-05-18T00:37:35;6.00;99.90
64012;DHT22;50211;52.768;12.124;2023-05-18T00:40:01;6.00;99.90
64012;DHT22;50211;52.768;12.124;2023-05-18T00:42:26;6.10;99.90
64012;DHT22;50211;52.768;12.124;2023-05-18T00:44:52;6.10;99.90
64012;DHT22;50211;52.768;12.124;2023-05-18T00:47:17;6.00;99.90
64012;DHT22;50211;52.768;12.124;2023-05-18T00:49:45;6.10;99.90
64012;DHT22;50211;52.768;12.124;2023-05-18T00:52:11;6.00;99.90
64012;DHT22;50211;52.768;12.124;2023-05-18T00:54:37;6.10;99.90
64012;DHT22;50211;52.768;12.124;2023-05-18T00:57:03;6.10;99.90
64012;DHT22;50211;52.768;12.124;2023-05-18T00:59:29;6.10;99.90
64012;DHT22;50211;52.768;12.124;2023-05-18T01:01:55;6.10;99.90
64012;DHT22;50211;52.768;12.124;2023-05-18T01:04:21;6.10;99.90
64012;DHT22;50211;52.768;12.124;2023-05-18T01:06:49;6.10;99.90
64012;DHT22;50211;52.768;12.124;2023-05-18T01:09:15;6.10;99.90
64012;DHT22;50211;52.768;12.124;2023-05-18T01:12:02;6.10;99.90
64012;DHT22;50211;52.768;12.124;2023-05-18T01:14:34;6.10;99.90
64012;DHT22;50211;52.768;12.124;2023-05-18T01:17:12;6.10;99.90
64012;DHT22;50211;52.768;12.124;2023-05-18T01:20:06;6.10;99.90
64012;DHT22;50211;52.768;12.124;2023-05-18T01:25:26;6.00;99.90
64012;DHT22;50211;52.768;12.124;2023-05-18T01:27:59;6.10;99.90
64012;DHT22;50211;52.768;12.124;2023-05-18T01:30:32;6.10;99.90
64012;DHT22;50211;52.768;12.124;2023-05-18T01:32:58;6.10;99.90
64012;DHT22;50211;52.768;12.124;2023-05-18T01:35:24;6.20;99.90
64012;DHT22;50211;52.768;12.124;2023-05-18T01:37:49;6.10;99.90
64012;DHT22;50211;52.768;12.124;2023-05-18T01:40:15;6.10;99.90
64012;DHT22;50211;52.768;12.124;2023-05-18T01:42:45;6.10;99.90
64012;DHT22;50211;52.768;12.124;2023-05-18T01:45:18;6.10;99.90
64012;DHT22;50211;52.768;12.124;2023-05-18T01:47:47;6.10;99.90
64012;DHT22;50211;52.768;12.124;2023-05-18T01:50:17;6.10;99.90
64012;DHT22;50211;52.768;12.124;2023-05-18T01:53:01;6.20;99.90
64012;DHT22;50211;52.768;12.124;2023-05-18T01:55:31;6.10;99.90
64012;DHT22;50211;52.768;12.124;2023-05-18T01:57:57;6.00;99.90
64012;DHT22;50211;52.768;12.124;2023-05-18T02:00:24;5.90;99.90
64012;DHT22;50211;52.768;12.124;2023-05-18T02:02:50;5.80;99.90
64012;DHT22;50211;52.768;12.124;2023-05-18T02:05:16;5.80;99.90
64012;DHT22;50211;52.768;12.124;2023-05-18T02:07:41;5.80;99.90
64012;DHT22;50211;52.768;12.124;2023-05-18T02:10:11;5.80;99.90
64012;DHT22;50211;52.768;12.124;2023-05-18T02:12:37;5.80;99.90
64012;DHT22;50211;52.768;12.124;2023-05-18T02:15:03;5.80;99.90
64012;DHT22;50211;52.768;12.124;2023-05-18T02:17:31;5.80;99.90
64012;DHT22;50211;52.768;12.124;2023-05-18T02:19:57;5.80;99.90
64012;DHT22;50211;52.768;12.124;2023-05-18T02:22:22;5.70;99.90
64012;DHT22;50211;52.768;12.124;2023-05-18T02:24:48;5.70;99.90
64012;DHT22;50211;52.768;12.124;2023-05-18T02:27:14;5.60;99.90
64012;DHT22;50211;52.768;12.124;2023-05-18T02:29:39;5.60;99.90
64012;DHT22;50211;52.768;12.124;2023-05-18T02:32:05;5.50;99.90
64012;DHT22;50211;52.768;12.124;2023-05-18T02:34:31;5.60;99.90
64012;DHT22;50211;52.768;12.124;2023-05-18T02:36:57;5.50;99.90
64012;DHT22;50211;52.768;12.124;2023-05-18T02:39:27;5.50;99.90
64012;DHT22;50211;52.768;12.124;2023-05-18T02:41:53;5.50;99.90
64012;DHT22;50211;52.768;12.124;2023-05-18T02:44:18;5.50;99.90
64012;DHT22;50211;52.768;12.124;2023-05-18T02:46:44;5.50;99.90
64012;DHT22;50211;52.768;12.124;2023-05-18T02:49:10;5.40;99.90
64012;DHT22;50211;52.768;12.124;2023-05-18T02:51:36;5.40;99.90
64012;DHT22;50211;52.768;12.124;2023-05-18T02:54:01;5.50;99.90
64012;DHT22;50211;52.768;12.124;2023-05-18T02:56:27;5.40;99.90
64012;DHT22;50211;52.768;12.124;2023-05-18T02:58:53;5.30;99.90
64012;DHT22;50211;52.768;12.124;2023-05-18T03:01:22;5.30;99.90
64012;DHT22;50211;52.768;12.124;2023-05-18T03:03:55;5.20;99.90
64012;DHT22;50211;52.768;12.124;2023-05-18T03:06:22;5.30;99.90
64012;DHT22;50211;52.768;12.124;2023-05-18T03:08:51;5.30;99.90
64012;DHT22;50211;52.768;12.124;2023-05-18T03:11:19;5.30;99.90
64012;DHT22;50211;52.768;12.124;2023-05-18T03:13:45;5.10;99.90
64012;DHT22;50211;52.768;12.124;2023-05-18T03:16:11;5.00;99.90
64012;DHT22;50211;52.768;12.124;2023-05-18T03:18:37;5.10;99.90
64012;DHT22;50211;52.768;12.124;2023-05-18T03:21:03;5.10;99.90
64012;DHT22;50211;52.768;12.124;2023-05-18T03:23:29;5.10;99.90
64012;DHT22;50211;52.768;12.124;2023-05-18T03:25:54;5.00;99.90
64012;DHT22;50211;52.768;12.124;2023-05-18T03:28:21;5.00;99.90
64012;DHT22;50211;52.768;12.124;2023-05-18T03:30:46;4.90;99.90
64012;DHT22;50211;52.768;12.124;2023-05-18T03:33:12;4.80;99.90
64012;DHT22;50211;52.768;12.124;2023-05-18T03:35:38;4.80;99.90
64012;DHT22;50211;52.768;12.124;2023-05-18T03:38:06;4.90;99.90
64012;DHT22;50211;52.768;12.124;2023-05-18T03:40:32;4.90;99.90
64012;DHT22;50211;52.768;12.124;2023-05-18T03:42:57;5.00;99.90
64012;DHT22;50211;52.768;12.124;2023-05-18T03:45:23;5.00;99.90
64012;DHT22;50211;52.768;12.124;2023-05-18T03:47:49;5.20;99.90
64012;DHT22;50211;52.768;12.124;2023-05-18T03:50:14;5.10;99.90
64012;DHT22;50211;52.768;12.124;2023-05-18T03:52:42;5.20;99.90
64012;DHT22;50211;52.768;12.124;2023-05-18T03:55:09;5.30;99.90
64012;DHT22;50211;52.768;12.124;2023-05-18T03:57:34;5.30;99.90
64012;DHT22;50211;52.768;12.124;2023-05-18T04:00:00;5.30;99.90
64012;DHT22;50211;52.768;12.124;2023-05-18T04:02:26;5.30;99.90
64012;DHT22;50211;52.768;12.124;2023-05-18T04:04:51;5.30;99.90
64012;DHT22;50211;52.768;12.124;2023-05-18T04:07:19;5.40;99.90
64012;DHT22;50211;52.768;12.124;2023-05-18T04:09:49;5.40;99.90
64012;DHT22;50211;52.768;12.124;2023-05-18T04:12:16;5.50;99.90
64012;DHT22;50211;52.768;12.124;2023-05-18T04:14:41;5.60;99.90
64012;DHT22;50211;52.768;12.124;2023-05-18T04:17:07;5.60;99.90
64012;DHT22;50211;52.768;12.124;2023-05-18T04:19:35;5.70;99.90
64012;DHT22;50211;52.768;12.124;2023-05-18T04:22:02;5.70;99.90
64012;DHT22;50211;52.768;12.124;2023-05-18T04:24:29;5.70;99.90
64012;DHT22;50211;52.768;12.124;2023-05-18T04:27:00;5.80;99.90
64012;DHT22;50211;52.768;12.124;2023-05-18T04:29:26;5.80;99.90
64012;DHT22;50211;52.768;12.124;2023-05-18T04:31:53;5.80;99.90
64012;DHT22;50211;52.768;12.124;2023-05-18T04:34:24;5.90;99.90
64012;DHT22;50211;52.768;12.124;2023-05-18T04:36:50;5.80;99.90
64012;DHT22;50211;52.768;12.124;2023-05-18T04:39:18;5.70;99.90
64012;DHT22;50211;52.768;12.124;2023-05-18T04:41:45;5.80;99.90
64012;DHT22;50211;52.768;12.124;2023-05-18T04:44:11;5.80;99.90
64012;DHT22;50211;52.768;12.124;2023-05-18T04:46:38;5.90;99.90
64012;DHT22;50211;52.768;12.124;2023-05-18T04:49:05;5.80;99.90
64012;DHT22;50211;52.768;12.124;2023-05-18T04:51:31;5.90;99.90
64012;DHT22;50211;52.768;12.124;2023-05-18T04:53:59;5.90;99.90
64012;DHT22;50211;52.768;12.124;2023-05-18T04:56:25;6.00;99.90
64012;DHT22;50211;52.768;12.124;2023-05-18T04:58:50;6.00;99.90
64012;DHT22;50211;52.768;12.124;2023-05-18T05:01:17;6.00;99.90
64012;DHT22;50211;52.768;12.124;2023-05-18T05:03:43;6.10;99.90
64012;DHT22;50211;52.768;12.124;2023-05-18T05:06:09;6.20;99.90
64012;DHT22;50211;52.768;12.124;2023-05-18T05:08:36;6.20;99.90
64012;DHT22;50211;52.768;12.124;2023-05-18T05:11:02;6.30;99.90
64012;DHT22;50211;52.768;12.124;2023-05-18T05:13:28;6.40;99.90
64012;DHT22;50211;52.768;12.124;2023-05-18T05:15:53;6.50;99.90
64012;DHT22;50211;52.768;12.124;2023-05-18T05:18:19;6.50;99.90
64012;DHT22;50211;52.768;12.124;2023-05-18T05:20:45;6.60;99.90
64012;DHT22;50211;52.768;12.124;2023-05-18T05:23:10;6.80;99.90
64012;DHT22;50211;52.768;12.124;2023-05-18T05:25:36;6.70;99.90
64012;DHT22;50211;52.768;12.124;2023-05-18T05:28:01;6.80;99.90
64012;DHT22;50211;52.768;12.124;2023-05-18T05:30:27;7.00;99.90
64012;DHT22;50211;52.768;12.124;2023-05-18T05:32:53;7.10;99.90
64012;DHT22;50211;52.768;12.124;2023-05-18T05:35:18;7.20;99.90
64012;DHT22;50211;52.768;12.124;2023-05-18T05:37:43;7.30;99.90
64012;DHT22;50211;52.768;12.124;2023-05-18T05:40:09;7.50;99.90
64012;DHT22;50211;52.768;12.124;2023-05-18T05:42:35;7.50;99.90
64012;DHT22;50211;52.768;12.124;2023-05-18T05:45:01;7.60;99.90
64012;DHT22;50211;52.768;12.124;2023-05-18T05:47:26;7.60;99.90
64012;DHT22;50211;52.768;12.124;2023-05-18T05:49:52;7.60;99.90
64012;DHT22;50211;52.768;12.124;2023-05-18T05:52:18;7.80;99.90
64012;DHT22;50211;52.768;12.124;2023-05-18T05:54:43;7.90;99.90
64012;DHT22;50211;52.768;12.124;2023-05-18T05:57:09;7.90;99.90
64012;DHT22;50211;52.768;12.124;2023-05-18T05:59:34;8.10;99.90
64012;DHT22;50211;52.768;12.124;2023-05-18T06:02:00;8.20;99.90
64012;DHT22;50211;52.768;12.124;2023-05-18T06:04:26;8.30;99.90
64012;DHT22;50211;52.768;12.124;2023-05-18T06:06:51;8.40;99.90
64012;DHT22;50211;52.768;12.124;2023-05-18T06:09:17;8.50;99.90
64012;DHT22;50211;52.768;12.124;2023-05-18T06:11:42;8.70;99.90
64012;DHT22;50211;52.768;12.124;2023-05-18T06:14:08;8.90;99.90
64012;DHT22;50211;52.768;12.124;2023-05-18T06:16:33;9.00;99.90
64012;DHT22;50211;52.768;12.124;2023-05-18T06:18:59;9.30;99.90
64012;DHT22;50211;52.768;12.124;2023-05-18T06:21:24;9.40;99.90
64012;DHT22;50211;52.768;12.124;2023-05-18T06:23:50;9.50;99.90
64012;DHT22;50211;52.768;12.124;2023-05-18T06:26:15;9.70;99.90
64012;DHT22;50211;52.768;12.124;2023-05-18T06:28:41;9.80;99.90
64012;DHT22;50211;52.768;12.124;2023-05-18T06:31:07;10.00;99.90
64012;DHT22;50211;52.768;12.124;2023-05-18T06:33:32;10.20;99.90
64012;DHT22;50211;52.768;12.124;2023-05-18T06:35:58;10.40;99.90
64012;DHT22;50211;52.768;12.124;2023-05-18T06:38:24;10.60;99.90
64012;DHT22;50211;52.768;12.124;2023-05-18T06:40:49;10.80;99.90
64012;DHT22;50211;52.768;12.124;2023-05-18T06:43:15;10.80;99.90
64012;DHT22;50211;52.768;12.124;2023-05-18T06:45:40;10.80;99.90
64012;DHT22;50211;52.768;12.124;2023-05-18T06:48:06;10.90;99.90
64012;DHT22;50211;52.768;12.124;2023-05-18T06:50:31;10.90;99.90
64012;DHT22;50211;52.768;12.124;2023-05-18T06:52:57;10.90;99.90
64012;DHT22;50211;52.768;12.124;2023-05-18T06:55:22;10.90;99.90
64012;DHT22;50211;52.768;12.124;2023-05-18T06:57:48;10.90;99.90
64012;DHT22;50211;52.768;12.124;2023-05-18T07:00:14;11.10;99.90
64012;DHT22;50211;52.768;12.124;2023-05-18T07:02:40;11.30;99.90
64012;DHT22;50211;52.768;12.124;2023-05-18T07:05:07;11.50;99.90
64012;DHT22;50211;52.768;12.124;2023-05-18T07:07:34;11.60;99.90
64012;DHT22;50211;52.768;12.124;2023-05-18T07:10:01;11.60;99.90
64012;DHT22;50211;52.768;12.124;2023-05-18T07:12:27;11.70;99.90
64012;DHT22;50211;52.768;12.124;2023-05-18T07:14:53;11.90;99.90
64012;DHT22;50211;52.768;12.124;2023-05-18T07:17:18;12.00;99.90
64012;DHT22;50211;52.768;12.124;2023-05-18T07:19:44;12.10;99.90
64012;DHT22;50211;52.768;12.124;2023-05-18T07:22:10;12.20;99.90
64012;DHT22;50211;52.768;12.124;2023-05-18T07:24:35;12.40;99.90
64012;DHT22;50211;52.768;12.124;2023-05-18T07:27:01;12.60;99.90
64012;DHT22;50211;52.768;12.124;2023-05-18T07:29:27;12.70;99.90
64012;DHT22;50211;52.768;12.124;2023-05-18T07:31:52;12.80;99.90
64012;DHT22;50211;52.768;12.124;2023-05-18T07:34:18;12.90;99.90
64012;DHT22;50211;52.768;12.124;2023-05-18T07:36:44;13.20;99.90
64012;DHT22;50211;52.768;12.124;2023-05-18T07:39:10;13.30;99.90
64012;DHT22;50211;52.768;12.124;2023-05-18T07:41:45;13.50;99.90
64012;DHT22;50211;52.768;12.124;2023-05-18T07:44:12;13.40;99.90
64012;DHT22;50211;52.768;12.124;2023-05-18T07:46:38;13.40;99.90
64012;DHT22;50211;52.768;12.124;2023-05-18T07:49:04;13.60;99.90
64012;DHT22;50211;52.768;12.124;2023-05-18T07:51:29;13.90;99.90
64012;DHT22;50211;52.768;12.124;2023-05-18T07:53:55;14.40;99.90
64012;DHT22;50211;52.768;12.124;2023-05-18T07:56:22;14.70;99.90
64012;DHT22;50211;52.768;12.124;2023-05-18T07:58:48;14.80;99.90
64012;DHT22;50211;52.768;12.124;2023-05-18T08:01:14;15.10;99.90
64012;DHT22;50211;52.768;12.124;2023-05-18T08:03:39;15.40;99.90
64012;DHT22;50211;52.768;12.124;2023-05-18T08:06:05;15.40;99.90
64012;DHT22;50211;52.768;12.124;2023-05-18T08:08:31;15.40;99.90
64012;DHT22;50211;52.768;12.124;2023-05-18T08:10:57;15.50;99.90
64012;DHT22;50211;52.768;12.124;2023-05-18T08:13:23;15.40;99.90
64012;DHT22;50211;52.768;12.124;2023-05-18T08:15:48;15.50;99.90
64012;DHT22;50211;52.768;12.124;2023-05-18T08:18:14;15.60;99.90
64012;DHT22;50211;52.768;12.124;2023-05-18T08:20:39;15.50;99.90
64012;DHT22;50211;52.768;12.124;2023-05-18T08:23:05;15.50;99.90
64012;DHT22;50211;52.768;12.124;2023-05-18T08:25:30;15.60;99.90
64012;DHT22;50211;52.768;12.124;2023-05-18T08:27:56;16.00;99.90
64012;DHT22;50211;52.768;12.124;2023-05-18T08:30:21;16.00;99.90
64012;DHT22;50211;52.768;12.124;2023-05-18T08:32:47;15.80;99.90
64012;DHT22;50211;52.768;12.124;2023-05-18T08:35:13;16.00;99.90
64012;DHT22;50211;52.768;12.124;2023-05-18T08:37:38;16.10;99.90
64012;DHT22;50211;52.768;12.124;2023-05-18T08:40:05;16.20;99.90
64012;DHT22;50211;52.768;12.124;2023-05-18T08:42:43;16.30;99.90
64012;DHT22;50211;52.768;12.124;2023-05-18T08:45:17;16.10;99.90
64012;DHT22;50211;52.768;12.124;2023-05-18T08:47:46;16.00;99.90
64012;DHT22;50211;52.768;12.124;2023-05-18T08:50:14;16.10;99.90
64012;DHT22;50211;52.768;12.124;2023-05-18T08:52:46;16.10;99.90
64012;DHT22;50211;52.768;12.124;2023-05-18T08:55:12;16.00;99.90
64012;DHT22;50211;52.768;12.124;2023-05-18T08:57:42;16.00;99.90
64012;DHT22;50211;52.768;12.124;2023-05-18T09:00:10;15.20;99.90
64012;DHT22;50211;52.768;12.124;2023-05-18T09:02:37;14.70;99.90
64012;DHT22;50211;52.768;12.124;2023-05-18T09:05:05;14.80;99.90
64012;DHT22;50211;52.768;12.124;2023-05-18T09:07:31;14.80;99.90
64012;DHT22;50211;52.768;12.124;2023-05-18T09:09:57;14.60;99.90
64012;DHT22;50211;52.768;12.124;2023-05-18T09:12:25;14.60;99.90
64012;DHT22;50211;52.768;12.124;2023-05-18T09:14:53;14.80;99.90
64012;DHT22;50211;52.768;12.124;2023-05-18T09:17:18;15.10;99.90
64012;DHT22;50211;52.768;12.124;2023-05-18T09:19:44;15.30;99.90
64012;DHT22;50211;52.768;12.124;2023-05-18T09:22:09;15.60;99.90
64012;DHT22;50211;52.768;12.124;2023-05-18T09:24:35;14.90;99.90
64012;DHT22;50211;52.768;12.124;2023-05-18T09:27:03;15.10;99.90
64012;DHT22;50211;52.768;12.124;2023-05-18T09:29:28;15.40;99.90
64012;DHT22;50211;52.768;12.124;2023-05-18T09:31:54;15.80;99.90
64012;DHT22;50211;52.768;12.124;2023-05-18T09:34:20;16.00;99.90
64012;DHT22;50211;52.768;12.124;2023-05-18T09:36:50;15.90;99.90
64012;DHT22;50211;52.768;12.124;2023-05-18T09:39:17;15.40;99.90
64012;DHT22;50211;52.768;12.124;2023-05-18T09:41:43;15.40;99.90
64012;DHT22;50211;52.768;12.124;2023-05-18T09:44:09;15.40;99.90
64012;DHT22;50211;52.768;12.124;2023-05-18T09:46:37;15.90;99.90
64012;DHT22;50211;52.768;12.124;2023-05-18T09:49:04;16.80;99.90
64012;DHT22;50211;52.768;12.124;2023-05-18T09:51:30;17.10;99.90
64012;DHT22;50211;52.768;12.124;2023-05-18T09:53:58;16.80;99.90
64012;DHT22;50211;52.768;12.124;2023-05-18T09:56:25;16.60;99.90
64012;DHT22;50211;52.768;12.124;2023-05-18T09:58:51;16.70;99.90
64012;DHT22;50211;52.768;12.124;2023-05-18T10:01:17;16.40;99.90
64012;DHT22;50211;52.768;12.124;2023-05-18T10:03:43;16.10;99.90
64012;DHT22;50211;52.768;12.124;2023-05-18T10:06:10;16.00;99.90
64012;DHT22;50211;52.768;12.124;2023-05-18T10:08:39;15.90;99.90
64012;DHT22;50211;52.768;12.124;2023-05-18T10:11:05;15.40;99.90
64012;DHT22;50211;52.768;12.124;2023-05-18T10:13:32;15.60;99.90
64012;DHT22;50211;52.768;12.124;2023-05-18T10:16:03;15.90;99.90
64012;DHT22;50211;52.768;12.124;2023-05-18T10:18:32;16.20;99.90
64012;DHT22;50211;52.768;12.124;2023-05-18T10:20:59;16.30;99.90
64012;DHT22;50211;52.768;12.124;2023-05-18T10:23:26;16.40;99.90
64012;DHT22;50211;52.768;12.124;2023-05-18T10:25:53;16.80;99.90
64012;DHT22;50211;52.768;12.124;2023-05-18T10:30:51;17.30;99.90
64012;DHT22;50211;52.768;12.124;2023-05-18T10:33:22;17.50;99.90
64012;DHT22;50211;52.768;12.124;2023-05-18T10:35:48;17.00;99.90
64012;DHT22;50211;52.768;12.124;2023-05-18T10:38:22;17.30;99.90
64012;DHT22;50211;52.768;12.124;2023-05-18T10:40:51;17.60;99.90
64012;DHT22;50211;52.768;12.124;2023-05-18T10:43:18;18.10;99.90
64012;DHT22;50211;52.768;12.124;2023-05-18T10:45:55;17.90;99.90
64012;DHT22;50211;52.768;12.124;2023-05-18T10:48:22;18.00;99.90
64012;DHT22;50211;52.768;12.124;2023-05-18T10:50:48;17.60;99.90
64012;DHT22;50211;52.768;12.124;2023-05-18T10:53:20;17.90;99.90
64012;DHT22;50211;52.768;12.124;2023-05-18T10:55:47;18.00;99.90
64012;DHT22;50211;52.768;12.124;2023-05-18T10:58:15;18.00;99.90
64012;DHT22;50211;52.768;12.124;2023-05-18T11:01:03;18.30;99.90
64012;DHT22;50211;52.768;12.124;2023-05-18T11:03:31;19.20;99.90
64012;DHT22;50211;52.768;12.124;2023-05-18T11:06:10;19.80;99.90
64012;DHT22;50211;52.768;12.124;2023-05-18T11:08:46;20.50;99.90
64012;DHT22;50211;52.768;12.124;2023-05-18T11:11:12;21.30;99.90
64012;DHT22;50211;52.768;12.124;2023-05-18T11:13:48;21.90;99.40
64012;DHT22;50211;52.768;12.124;2023-05-18T11:16:15;20.70;98.60
64012;DHT22;50211;52.768;12.124;2023-05-18T11:18:49;21.10;98.40
64012;DHT22;50211;52.768;12.124;2023-05-18T11:21:18;21.30;97.80
64012;DHT22;50211;52.768;12.124;2023-05-18T11:27:13;21.10;97.10
64012;DHT22;50211;52.768;12.124;2023-05-18T11:29:44;21.70;95.60
64012;DHT22;50211;52.768;12.124;2023-05-18T11:32:27;21.80;95.70
64012;DHT22;50211;52.768;12.124;2023-05-18T11:34:54;22.00;94.10
64012;DHT22;50211;52.768;12.124;2023-05-18T11:40:08;22.20;94.90
64012;DHT22;50211;52.768;12.124;2023-05-18T11:42:34;21.50;96.90
64012;DHT22;50211;52.768;12.124;2023-05-18T11:45:10;20.60;97.20
64012;DHT22;50211;52.768;12.124;2023-05-18T11:47:36;19.70;97.90
64012;DHT22;50211;52.768;12.124;2023-05-18T11:50:10;19.20;97.80
64012;DHT22;50211;52.768;12.124;2023-05-18T11:52:47;18.80;98.90
64012;DHT22;50211;52.768;12.124;2023-05-18T11:55:17;19.00;97.80
64012;DHT22;50211;52.768;12.124;2023-05-18T11:57:43;19.50;98.10
64012;DHT22;50211;52.768;12.124;2023-05-18T12:00:12;19.80;96.60
64012;DHT22;50211;52.768;12.124;2023-05-18T12:02:42;19.50;96.40
64012;DHT22;50211;52.768;12.124;2023-05-18T12:05:09;19.70;96.00
64012;DHT22;50211;52.768;12.124;2023-05-18T12:07:35;20.00;95.80
64012;DHT22;50211;52.768;12.124;2023-05-18T12:10:07;20.30;95.60
64012;DHT22;50211;52.768;12.124;2023-05-18T12:12:33;20.90;95.10
64012;DHT22;50211;52.768;12.124;2023-05-18T12:15:01;21.20;97.10
64012;DHT22;50211;52.768;12.124;2023-05-18T12:17:44;21.20;96.30
64012;DHT22;50211;52.768;12.124;2023-05-18T12:20:18;20.10;95.50
64012;DHT22;50211;52.768;12.124;2023-05-18T12:22:46;19.60;95.50
64012;DHT22;50211;52.768;12.124;2023-05-18T12:25:16;19.40;96.90
64012;DHT22;50211;52.768;12.124;2023-05-18T12:27:43;19.40;97.10
64012;DHT22;50211;52.768;12.124;2023-05-18T12:30:10;19.50;98.00
64012;DHT22;50211;52.768;12.124;2023-05-18T12:32:37;20.50;98.60
64012;DHT22;50211;52.768;12.124;2023-05-18T12:35:03;20.80;94.30
64012;DHT22;50211;52.768;12.124;2023-05-18T12:37:30;21.10;94.70
64012;DHT22;50211;52.768;12.124;2023-05-18T12:39:56;21.30;94.30
64012;DHT22;50211;52.768;12.124;2023-05-18T12:42:21;21.90;94.30
64012;DHT22;50211;52.768;12.124;2023-05-18T12:44:47;21.60;91.80
64012;DHT22;50211;52.768;12.124;2023-05-18T12:47:14;21.60;93.60
64012;DHT22;50211;52.768;12.124;2023-05-18T12:49:41;21.60;94.70
64012;DHT22;50211;52.768;12.124;2023-05-18T12:52:11;20.80;92.90
64012;DHT22;50211;52.768;12.124;2023-05-18T12:54:47;21.00;92.60
64012;DHT22;50211;52.768;12.124;2023-05-18T12:57:14;21.20;92.30
64012;DHT22;50211;52.768;12.124;2023-05-18T12:59:47;21.90;93.50
64012;DHT22;50211;52.768;12.124;2023-05-18T13:02:35;21.80;92.50
64012;DHT22;50211;52.768;12.124;2023-05-18T13:07:33;22.10;92.20
64012;DHT22;50211;52.768;12.124;2023-05-18T13:10:00;22.10;92.70
64012;DHT22;50211;52.768;12.124;2023-05-18T13:12:38;22.10;92.80
64012;DHT22;50211;52.768;12.124;2023-05-18T13:15:08;22.00;92.10
64012;DHT22;50211;52.768;12.124;2023-05-18T13:17:34;21.80;91.50
64012;DHT22;50211;52.768;12.124;2023-05-18T13:19:59;21.60;94.30
64012;DHT22;50211;52.768;12.124;2023-05-18T13:22:25;21.90;90.60
64012;DHT22;50211;52.768;12.124;2023-05-18T13:24:50;22.00;91.10
64012;DHT22;50211;52.768;12.124;2023-05-18T13:27:16;22.70;91.90
64012;DHT22;50211;52.768;12.124;2023-05-18T13:29:41;22.60;90.20
64012;DHT22;50211;52.768;12.124;2023-05-18T13:32:07;22.50;91.50
64012;DHT22;50211;52.768;12.124;2023-05-18T13:34:32;22.60;90.70
64012;DHT22;50211;52.768;12.124;2023-05-18T13:36:58;23.00;90.90
64012;DHT22;50211;52.768;12.124;2023-05-18T13:39:25;23.50;89.30
64012;DHT22;50211;52.768;12.124;2023-05-18T13:41:50;23.80;90.60
64012;DHT22;50211;52.768;12.124;2023-05-18T13:44:16;23.80;91.30
64012;DHT22;50211;52.768;12.124;2023-05-18T13:46:42;24.00;90.80
64012;DHT22;50211;52.768;12.124;2023-05-18T13:49:08;24.00;86.00
64012;DHT22;50211;52.768;12.124;2023-05-18T13:51:33;23.50;84.60
64012;DHT22;50211;52.768;12.124;2023-05-18T13:53:59;23.10;84.80
64012;DHT22;50211;52.768;12.124;2023-05-18T13:56:26;23.20;84.10
64012;DHT22;50211;52.768;12.124;2023-05-18T13:58:52;23.30;86.50
64012;DHT22;50211;52.768;12.124;2023-05-18T14:01:17;23.70;83.70
64012;DHT22;50211;52.768;12.124;2023-05-18T14:03:43;23.60;85.90
64012;DHT22;50211;52.768;12.124;2023-05-18T14:06:08;23.80;86.20
64012;DHT22;50211;52.768;12.124;2023-05-18T14:08:34;23.80;85.70
64012;DHT22;50211;52.768;12.124;2023-05-18T14:10:59;24.00;88.80
64012;DHT22;50211;52.768;12.124;2023-05-18T14:13:25;24.10;86.10
64012;DHT22;50211;52.768;12.124;2023-05-18T14:15:50;24.00;83.40
64012;DHT22;50211;52.768;12.124;2023-05-18T14:18:16;23.80;84.80
64012;DHT22;50211;52.768;12.124;2023-05-18T14:20:41;24.00;90.00
64012;DHT22;50211;52.768;12.124;2023-05-18T14:23:07;23.90;81.20
64012;DHT22;50211;52.768;12.124;2023-05-18T14:25:32;23.60;85.50
64012;DHT22;50211;52.768;12.124;2023-05-18T14:27:57;23.50;82.10
64012;DHT22;50211;52.768;12.124;2023-05-18T14:30:23;23.60;83.80
64012;DHT22;50211;52.768;12.124;2023-05-18T14:32:48;23.80;82.60
64012;DHT22;50211;52.768;12.124;2023-05-18T14:35:14;23.30;85.90
64012;DHT22;50211;52.768;12.124;2023-05-18T14:37:39;23.40;86.90
64012;DHT22;50211;52.768;12.124;2023-05-18T14:40:06;23.30;83.90
64012;DHT22;50211;52.768;12.124;2023-05-18T14:42:32;22.80;83.60
64012;DHT22;50211;52.768;12.124;2023-05-18T14:44:57;22.50;85.00
64012;DHT22;50211;52.768;12.124;2023-05-18T14:47:23;22.30;83.40
64012;DHT22;50211;52.768;12.124;2023-05-18T14:49:48;22.50;89.30
64012;DHT22;50211;52.768;12.124;2023-05-18T14:52:14;22.70;85.70
64012;DHT22;50211;52.768;12.124;2023-05-18T14:54:39;23.00;83.10
64012;DHT22;50211;52.768;12.124;2023-05-18T14:57:06;23.00;85.70
64012;DHT22;50211;52.768;12.124;2023-05-18T14:59:32;22.70;88.50
64012;DHT22;50211;52.768;12.124;2023-05-18T15:01:57;22.60;90.10
64012;DHT22;50211;52.768;12.124;2023-05-18T15:04:22;22.50;87.90
64012;DHT22;50211;52.768;12.124;2023-05-18T15:06:49;22.30;88.60
64012;DHT22;50211;52.768;12.124;2023-05-18T15:09:15;22.10;88.20
64012;DHT22;50211;52.768;12.124;2023-05-18T15:11:41;22.10;86.90
64012;DHT22;50211;52.768;12.124;2023-05-18T15:14:06;22.00;87.20
64012;DHT22;50211;52.768;12.124;2023-05-18T15:16:32;22.00;89.50
64012;DHT22;50211;52.768;12.124;2023-05-18T15:18:57;21.90;89.80
64012;DHT22;50211;52.768;12.124;2023-05-18T15:21:23;21.50;89.40
64012;DHT22;50211;52.768;12.124;2023-05-18T15:23:48;21.60;89.20
64012;DHT22;50211;52.768;12.124;2023-05-18T15:26:14;21.50;90.50
64012;DHT22;50211;52.768;12.124;2023-05-18T15:28:40;21.40;89.70
64012;DHT22;50211;52.768;12.124;2023-05-18T15:31:07;21.20;90.40
64012;DHT22;50211;52.768;12.124;2023-05-18T15:33:33;21.10;91.20
64012;DHT22;50211;52.768;12.124;2023-05-18T15:36:01;20.90;90.60